Terminal Aerodrome Forecast
Issued by NWS

Home | Current Version | Previous Version | Text Only | Print | Product List | Glossary On
Versions: 1 2 3 4 5 6 7 8 9 10 11 12 13 14 15 16 17 18 19 20
000
FTUS44 KLZK 161700
TAFHRO
TAF
KHRO 161724Z 1618/1718 08005KT P6SM OVC004
     FM162100 08005KT P6SM OVC008
     FM170600 05003KT 1/2SM FG OVC003
     FM171500 15006KT 5SM BR BKN012=

USA.gov is the U.S. government's official web portal to all federal, state and local government web resources and services.